LCLK/LCA METAR and TAF weather

Enter ICAO airport designator
Station Type Date Time Source
LCLK METAR 2021/09/28 17:00 UTC NOAA

LCLK 281700Z 20008KT 9999 FEW001 25/21 Q1010 NOSIG


Station Type Date Time Source
LCLK Decoded METAR 2021/09/28 17:00 UTC NOAA

Larnaca Airport, Cyprus (LCLK) 34-53N 033-38E 2M
Sep 28, 2021 - 01:00 PM EDT / 2021.09.28 1700 UTC
Wind: from the SSW (200 degrees) at 9 MPH (8 KT):0
Visibility: greater than 7 mile(s):0
Sky conditions: mostly clear
Temperature: 77 F (25 C)
Dew Point: 69 F (21 C)
Relative Humidity: 78%
Pressure (altimeter): 29.83 in. Hg (1010 hPa)
ob: LCLK 281700Z 20008KT 9999 FEW001 25/21 Q1010 NOSIG
cycle: 17

Station Type Date Time Source
LCLK TAF 2021/09/28 12:33 UTC NOAA

TAF TAF LCLK 281130Z 2812/2912 21015KT 9999 FEW030
BECMG 2817/2820 31005KT PROB30 2820/2902 5000 BR BKN006 PROB30 2901/2906 BKN012
BECMG 2910/2912 21014KT

Example: see airport list